Time;durP1;ratioP1;P1;durP2;ratioP2;P2;SDS_P1;SDS_P2;PMS_P1;PMS_P2;Temp;Humidity;BMP_temperature;BMP_pressure;BME280_temperature;BME280_humidity;BME280_pressure;Samples;Min_cycle;Max_cycle;Signal;HPM_P1;HPM_P2
2023/01/12 00:02:04;;;;;;;;;;;;;;;-144.99;100.00;52541.84;5007885;28;20007;-69
2023/01/12 00:04:31;;;;;;;;;;;;;;;-144.99;100.00;52541.84;5003575;28;20416;-70
2023/01/12 00:06:59;;;;;;;;;;;;;;;-144.99;100.00;52558.16;5007035;28;20452;-70
2023/01/12 00:09:26;;;;;;;;;;;;;;;-144.99;100.00;52582.63;5006639;28;20011;-69
2023/01/12 00:11:53;;;;;;;;;;;;;;;-144.99;100.00;52590.78;5009135;28;19965;-70
2023/01/12 00:14:19;;;;;;;;;;;;;;;-144.99;100.00;52580.59;5007815;28;20307;-69
2023/01/12 00:16:46;;;;;;;;;;;;;;;-144.99;100.00;52578.53;5008806;28;19965;-69
2023/01/12 00:19:14;;;;;;;;;;;;;;;-144.99;100.00;52552.03;5008601;28;19925;-70
2023/01/12 00:22:01;;;;;;;;;;;;;;;-144.99;100.00;52537.78;5008785;28;19956;-69
2023/01/12 00:24:29;;;;;;;;;;;;;;;-144.99;100.00;52541.84;5005468;28;19930;-68
2023/01/12 00:26:57;;;;;;;;;;;;;;;-144.99;100.00;52574.47;5005252;28;19991;-72
2023/01/12 00:29:24;;;;;;;;;;;;;;;-144.99;100.00;52590.78;5009078;28;19925;-68
2023/01/12 00:31:51;;;;;;;;;;;;;;;-144.99;100.00;52537.78;5009449;28;19929;-70
2023/01/12 00:34:17;;;;;;;;;;;;;;;-144.99;100.00;52582.63;5026999;28;19925;-69
2023/01/12 00:36:44;;;;;;;;;;;;;;;-144.99;100.00;52586.69;5008283;28;19926;-69
2023/01/12 00:39:11;;;;;;;;;;;;;;;-144.99;100.00;52543.91;5008834;28;19929;-70
2023/01/12 00:47:17;;;;;;;;;;;;;;;-144.99;100.00;52578.53;5011922;28;19979;-69
2023/01/12 00:49:43;;;;;;;;;;;;;;;-144.99;100.00;52578.53;5012223;28;20000;-69
2023/01/12 00:52:11;;;;;;;;;;;;;;;-144.99;100.00;52533.69;5012611;28;20048;-68
2023/01/12 00:54:37;;;;;;;;;;;;;;;-144.99;100.00;52521.47;5012209;28;19929;-68
2023/01/12 00:57:06;;;;;;;;;;;;;;;-144.99;100.00;52537.78;5011262;28;19929;-68
2023/01/12 00:59:32;;;;;;;;;;;;;;;-144.99;100.00;52558.16;5011805;28;20416;-69
2023/01/12 01:01:59;;;;;;;;;;;;;;;-144.99;100.00;52550.00;5011939;28;20433;-68
2023/01/12 01:04:25;;;;;;;;;;;;;;;-144.99;99.10;52570.38;5012222;28;19929;-69
2023/01/12 01:06:52;;;;;;;;;;;;;;;-144.99;100.00;52576.50;5011656;28;20379;-69
2023/01/12 01:09:18;;;;;;;;;;;;;;;-144.99;100.00;52586.69;5016309;28;20333;-72
2023/01/12 01:11:45;;;;;;;;;;;;;;;-144.99;100.00;52605.03;5018464;28;19925;-70
2023/01/12 01:14:13;;;;;;;;;;;;;;;-144.99;100.00;52617.28;5026115;28;19941;-72
2023/01/12 01:16:39;;;;;;;;;;;;;;;-144.99;100.00;52590.78;5036210;28;19929;-71
2023/01/12 01:19:06;;;;;;;;;;;;;;;-144.99;100.00;52590.78;5020273;28;19929;-71
2023/01/12 01:21:33;;;;;;;;;;;;;;;-144.99;100.00;52558.16;5019577;28;19936;-71
2023/01/12 01:24:00;;;;;;;;;;;;;;;-144.99;100.00;52574.47;5020787;28;19933;-74
2023/01/12 01:26:29;;;;;;;;;;;;;;;-144.99;100.00;52590.78;5021151;28;20341;-76
2023/01/12 01:28:56;;;;;;;;;;;;;;;-144.99;100.00;52570.38;5018221;28;20012;-72
2023/01/12 01:31:25;;;;;;;;;;;;;;;-144.99;100.00;52625.44;5016630;28;19929;-72
2023/01/12 01:33:52;;;;;;;;;;;;;;;-144.99;100.00;52590.78;5017098;28;19925;-73
2023/01/12 01:36:19;;;;;;;;;;;;;;;-144.99;100.00;52545.94;5016740;28;20129;-73
2023/01/12 01:38:46;;;;;;;;;;;;;;;-144.99;100.00;52574.47;5013772;28;19926;-72
2023/01/12 01:41:16;;;;;;;;;;;;;;;-144.99;100.00;52545.94;5015338;28;19926;-73
2023/01/12 01:43:51;;;;;;;;;;;;;;;-144.99;100.00;52590.78;5019223;28;19980;-74
2023/01/12 01:46:21;;;;;;;;;;;;;;;-144.99;100.00;52603.00;5018721;28;19966;-75
2023/01/12 01:48:49;;;;;;;;;;;;;;;-144.99;100.00;52590.78;5014830;28;19996;-69
2023/01/12 01:51:16;;;;;;;;;;;;;;;-144.99;100.00;52594.84;5012044;28;20006;-68
2023/01/12 01:53:45;;;;;;;;;;;;;;;-144.99;100.00;52598.94;5012063;28;20011;-66
2023/01/12 01:56:13;;;;;;;;;;;;;;;-144.99;100.00;52586.69;5009936;28;19942;-66
2023/01/12 01:58:41;;;;;;;;;;;;;;;-144.99;100.00;52552.03;5011092;28;20086;-65
2023/01/12 02:01:07;;;;;;;;;;;;;;;-144.99;100.00;52558.16;5011358;28;20482;-68
2023/01/12 02:03:34;;;;;;;;;;;;;;;-144.99;100.00;52590.78;5011432;28;19968;-66
2023/01/12 02:06:02;;;;;;;;;;;;;;;-144.99;100.00;52590.78;5010110;28;19929;-68
2023/01/12 02:08:33;;;;;;;;;;;;;;;-144.99;100.00;52580.59;5010809;28;20453;-66
2023/01/12 02:11:01;;;;;;;;;;;;;;;-144.99;100.00;52596.88;5010707;28;19929;-67
2023/01/12 02:16:21;;;;;;;;;;;;;;;-144.99;100.00;52584.66;5009143;28;20256;-68
2023/01/12 02:19:00;;;;;;;;;;;;;;;-144.99;100.00;52572.44;5005845;28;19948;-67
2023/01/12 02:21:37;;;;;;;;;;;;;;;-144.99;100.00;52562.25;5011010;28;20395;-68
2023/01/12 02:24:22;;;;;;;;;;;;;;;-144.99;100.00;52550.00;5009647;28;19933;-67
2023/01/12 02:27:08;;;;;;;;;;;;;;;-144.99;100.00;52556.13;4989620;28;19972;-70
2023/01/12 02:29:44;;;;;;;;;;;;;;;-144.99;100.00;52537.78;5009447;28;19929;-68
2023/01/12 02:32:16;;;;;;;;;;;;;;;-144.99;100.00;52570.38;5011366;28;19925;-68
2023/01/12 02:34:47;;;;;;;;;;;;;;;-144.99;100.00;52562.25;5009663;28;19965;-68
2023/01/12 02:37:17;;;;;;;;;;;;;;;-144.99;100.00;52533.69;5009728;28;19968;-68
2023/01/12 02:39:49;;;;;;;;;;;;;;;-144.99;100.00;52562.25;5010621;28;19976;-69
2023/01/12 02:45:09;;;;;;;;;;;;;;;-144.99;100.00;52547.97;5007545;28;20406;-69
2023/01/12 02:47:39;;;;;;;;;;;;;;;-144.99;100.00;52558.16;5007456;28;19925;-70
2023/01/12 02:50:09;;;;;;;;;;;;;;;-144.99;100.00;52558.16;5010720;28;19930;-70
2023/01/12 02:52:35;;;;;;;;;;;;;;;-144.99;100.00;52574.47;5010025;28;19965;-67
2023/01/12 02:55:03;;;;;;;;;;;;;;;-144.99;100.00;52562.25;5008550;28;20027;-67
2023/01/12 02:57:31;;;;;;;;;;;;;;;-144.99;100.00;52566.31;5010084;28;19926;-71
2023/01/12 03:00:00;;;;;;;;;;;;;;;-144.99;100.00;52600.97;5009882;28;19925;-71
2023/01/12 03:02:27;;;;;;;;;;;;;;;-144.99;100.00;52529.63;5010516;28;20008;-71
2023/01/12 03:04:55;;;;;;;;;;;;;;;-144.99;100.00;52537.78;5010060;28;20382;-71
2023/01/12 03:07:30;;;;;;;;;;;;;;;-144.99;100.00;52533.69;5009049;28;19933;-71
2023/01/12 03:09:59;;;;;;;;;;;;;;;-144.99;100.00;52558.16;5009808;28;19929;-71
2023/01/12 03:12:29;;;;;;;;;;;;;;;-144.99;100.00;52525.56;5010389;28;20361;-72
2023/01/12 03:14:58;;;;;;;;;;;;;;;-144.99;100.00;52533.69;5009708;28;19988;-71
2023/01/12 03:17:29;;;;;;;;;;;;;;;-144.99;100.00;52550.00;5024577;28;19929;-73
2023/01/12 03:19:59;;;;;;;;;;;;;;;-144.99;100.00;52576.50;5018092;28;19991;-72
2023/01/12 03:22:25;;;;;;;;;;;;;;;-144.99;100.00;52529.63;5010143;28;19933;-71
2023/01/12 03:24:54;;;;;;;;;;;;;;;-144.99;100.00;52531.66;5008136;28;20402;-69
2023/01/12 03:27:23;;;;;;;;;;;;;;;-144.99;100.00;52545.94;5009080;28;19971;-70
2023/01/12 03:29:54;;;;;;;;;;;;;;;-144.99;100.00;52558.16;5004350;28;20015;-69
2023/01/12 03:32:21;;;;;;;;;;;;;;;-144.99;100.00;52550.00;5009469;28;19968;-70
2023/01/12 03:34:48;;;;;;;;;;;;;;;-144.99;100.00;52533.69;5008335;28;20359;-70
2023/01/12 03:37:21;;;;;;;;;;;;;;;-144.99;100.00;52550.00;5009750;28;19926;-70
2023/01/12 03:39:50;;;;;;;;;;;;;;;-144.99;100.00;52525.56;5009202;28;19926;-67
2023/01/12 03:42:20;;;;;;;;;;;;;;;-144.99;100.00;52550.00;5009162;28;20383;-65
2023/01/12 03:44:49;;;;;;;;;;;;;;;-144.99;100.00;52566.31;5007779;28;19972;-64
2023/01/12 03:47:18;;;;;;;;;;;;;;;-144.99;100.00;52511.28;5009844;28;20399;-64
2023/01/12 03:49:47;;;;;;;;;;;;;;;-144.99;100.00;52521.47;5009028;28;19968;-63
2023/01/12 03:52:14;;;;;;;;;;;;;;;-144.99;100.00;52541.84;5009190;28;19980;-63
2023/01/12 03:54:43;;;;;;;;;;;;;;;-144.99;100.00;52517.41;5007285;28;20279;-64
2023/01/12 03:57:11;;;;;;;;;;;;;;;-144.99;100.00;52574.47;5009482;28;19965;-65
2023/01/12 03:59:37;;;;;;;;;;;;;;;-144.99;100.00;52582.63;5008752;28;20027;-66
2023/01/12 04:02:04;;;;;;;;;;;;;;;-144.99;100.00;52525.56;5009097;28;19961;-66
2023/01/12 04:04:30;;;;;;;;;;;;;;;-144.99;100.00;52550.00;5009187;28;20633;-65
2023/01/12 04:06:57;;;;;;;;;;;;;;;-144.99;100.00;52527.59;5007695;28;19991;-63
2023/01/12 04:09:24;;;;;;;;;;;;;;;-144.99;100.00;52521.47;5009041;28;19925;-68
2023/01/12 04:12:10;;;;;;;;;;;;;;;-144.99;100.00;52554.09;5009320;28;19933;-69
2023/01/12 04:14:37;;;;;;;;;;;;;;;-144.99;100.00;52545.94;5008091;28;19926;-68
2023/01/12 04:17:04;;;;;;;;;;;;;;;-144.99;100.00;52537.78;5008940;28;19934;-68
2023/01/12 04:19:30;;;;;;;;;;;;;;;-144.99;100.00;52570.38;5009034;28;19930;-73
2023/01/12 04:24:41;;;;;;;;;;;;;;;-144.99;100.00;52533.69;5011584;28;20067;-73
2023/01/12 04:27:09;;;;;;;;;;;;;;;-144.99;100.00;52556.13;5013012;28;20355;-72
2023/01/12 04:29:36;;;;;;;;;;;;;;;-144.99;100.00;52537.78;5013197;28;19965;-71
2023/01/12 04:32:03;;;;;;;;;;;;;;;-144.99;100.00;52584.66;5013414;28;19976;-72
2023/01/12 04:34:30;;;;;;;;;;;;;;;-144.99;100.00;52558.16;5012049;28;19959;-71
2023/01/12 04:36:56;;;;;;;;;;;;;;;-144.99;100.00;52582.63;5012604;28;20285;-71
2023/01/12 04:39:23;;;;;;;;;;;;;;;-144.99;100.00;52586.69;5012616;28;19925;-71
2023/01/12 04:41:49;;;;;;;;;;;;;;;-144.99;100.00;52578.53;5012967;28;19968;-73
2023/01/12 04:44:17;;;;;;;;;;;;;;;-144.99;100.00;52521.47;5011072;28;20385;-73
2023/01/12 04:46:44;;;;;;;;;;;;;;;-144.99;100.00;52527.59;5011838;28;20006;-73
2023/01/12 04:49:10;;;;;;;;;;;;;;;-144.99;100.00;52547.97;5012193;28;20014;-74
2023/01/12 04:51:37;;;;;;;;;;;;;;;-144.99;100.00;52578.53;5009813;28;19944;-74
2023/01/12 04:54:03;;;;;;;;;;;;;;;-144.99;100.00;52539.81;5011415;28;19944;-74
2023/01/12 04:56:30;;;;;;;;;;;;;;;-144.99;100.00;52550.00;5012189;28;19925;-76
2023/01/12 04:58:59;;;;;;;;;;;;;;;-144.99;100.00;52558.16;5012467;28;19930;-73
2023/01/12 05:01:28;;;;;;;;;;;;;;;-144.99;100.00;52578.53;5012585;28;20514;-74
2023/01/12 05:03:55;;;;;;;;;;;;;;;-144.99;100.00;52541.84;5010494;28;20507;-74
2023/01/12 05:06:21;;;;;;;;;;;;;;;-144.99;100.00;52541.84;5011348;28;20375;-74
2023/01/12 05:11:32;;;;;;;;;;;;;;;-144.99;100.00;52550.00;5012342;28;20353;-74
2023/01/12 05:13:59;;;;;;;;;;;;;;;-144.99;100.00;52550.00;5010727;28;20302;-72
2023/01/12 05:16:27;;;;;;;;;;;;;;;-144.99;100.00;52541.84;5011960;28;19965;-72
2023/01/12 05:18:54;;;;;;;;;;;;;;;-144.99;100.00;52541.84;5012212;28;20006;-72
2023/01/12 05:21:21;;;;;;;;;;;;;;;-144.99;100.00;52566.31;5012101;28;19971;-71
2023/01/12 05:23:48;;;;;;;;;;;;;;;-144.99;100.00;52543.91;5010437;28;20370;-71
2023/01/12 05:26:15;;;;;;;;;;;;;;;-144.99;100.00;52578.53;5011494;28;19926;-70
2023/01/12 05:28:41;;;;;;;;;;;;;;;-144.99;100.00;52537.78;5010407;28;20402;-70
2023/01/12 05:31:09;;;;;;;;;;;;;;;-144.99;100.00;52562.25;5011324;28;20389;-70
2023/01/12 05:33:38;;;;;;;;;;;;;;;-144.99;100.00;52578.53;5009348;28;19988;-71
2023/01/12 05:36:05;;;;;;;;;;;;;;;-144.99;100.00;52517.41;5011759;28;20027;-69
2023/01/12 05:38:32;;;;;;;;;;;;;;;-144.99;100.00;52550.00;5011736;28;19933;-71
2023/01/12 05:40:59;;;;;;;;;;;;;;;-144.99;100.00;52550.00;5011575;28;19999;-71
2023/01/12 05:46:09;;;;;;;;;;;;;;;-144.99;100.00;52537.78;5009930;28;20176;-71
2023/01/12 05:48:35;;;;;;;;;;;;;;;-144.99;100.00;52531.66;5012013;28;20428;-70
2023/01/12 05:51:05;;;;;;;;;;;;;;;-144.99;100.00;52550.00;5012255;28;19936;-70
2023/01/12 05:53:31;;;;;;;;;;;;;;;-144.99;100.00;52533.69;5011675;28;19936;-71
2023/01/12 05:55:58;;;;;;;;;;;;;;;-144.99;100.00;52574.47;5009886;28;19926;-71
2023/01/12 05:58:25;;;;;;;;;;;;;;;-144.99;100.00;52550.00;5019655;28;20457;-71
2023/01/12 06:00:51;;;;;;;;;;;;;;;-144.99;100.00;52537.78;5020263;28;19926;-71
2023/01/12 06:03:18;;;;;;;;;;;;;;;-144.99;100.00;52570.38;5011513;28;19940;-70
2023/01/12 06:05:44;;;;;;;;;;;;;;;-144.99;100.00;52574.47;5009970;28;19926;-71
2023/01/12 06:08:12;;;;;;;;;;;;;;;-144.99;100.00;52523.50;5011319;28;19979;-71
2023/01/12 06:10:39;;;;;;;;;;;;;;;-144.99;100.00;52566.31;5011495;28;20298;-73
2023/01/12 06:15:50;;;;;;;;;;;;;;;-144.99;100.00;52554.09;5011183;28;20046;-72
2023/01/12 06:18:17;;;;;;;;;;;;;;;-144.99;100.00;52525.56;5010454;28;19926;-72
2023/01/12 06:20:44;;;;;;;;;;;;;;;-144.99;100.00;52505.16;5011156;28;19926;-72
2023/01/12 06:23:12;;;;;;;;;;;;;;;-144.99;100.00;52556.13;5009075;28;20295;-73
2023/01/12 06:25:38;;;;;;;;;;;;;;;-144.99;100.00;52523.50;5010550;28;20579;-71
2023/01/12 06:28:05;;;;;;;;;;;;;;;-144.99;100.00;52539.81;5010525;28;20315;-71
2023/01/12 06:30:32;;;;;;;;;;;;;;;-144.99;100.00;52582.63;5010330;28;19999;-70
2023/01/12 06:33:01;;;;;;;;;;;;;;;-144.99;100.00;52574.47;5009928;28;20413;-70
2023/01/12 06:35:27;;;;;;;;;;;;;;;-144.99;100.00;52523.50;5010853;28;19929;-70
2023/01/12 06:37:55;;;;;;;;;;;;;;;-144.99;100.00;52562.25;5019243;28;19948;-69
2023/01/12 06:40:23;;;;;;;;;;;;;;;-144.99;100.00;52556.13;5034204;28;19925;-70
2023/01/12 06:42:50;;;;;;;;;;;;;;;-144.99;100.00;52554.09;5010983;28;19929;-70
2023/01/12 06:45:16;;;;;;;;;;;;;;;-144.99;100.00;52550.00;5009398;28;19991;-70
2023/01/12 06:47:47;;;;;;;;;;;;;;;-144.99;100.00;52568.34;5010511;28;19925;-70
2023/01/12 06:50:14;;;;;;;;;;;;;;;-144.99;100.00;52541.84;5010295;28;20370;-70
2023/01/12 06:52:41;;;;;;;;;;;;;;;-144.99;100.00;52552.03;5010420;28;19987;-70
2023/01/12 06:55:07;;;;;;;;;;;;;;;-144.99;100.00;52537.78;5008511;28;20313;-69
2023/01/12 06:57:35;;;;;;;;;;;;;;;-144.99;100.00;52566.31;5010579;28;19968;-69
2023/01/12 07:00:03;;;;;;;;;;;;;;;-144.99;100.00;52558.16;5010077;28;20429;-69
2023/01/12 07:02:29;;;;;;;;;;;;;;;-144.99;100.00;52558.16;5010141;28;20022;-69
2023/01/12 07:04:56;;;;;;;;;;;;;;;-144.99;100.00;52545.94;5008402;28;19937;-70
2023/01/12 07:07:22;;;;;;;;;;;;;;;-144.99;100.00;52523.50;5010128;28;20002;-72
2023/01/12 07:09:49;;;;;;;;;;;;;;;-144.99;100.00;52525.56;5009985;28;20380;-70
2023/01/12 07:12:15;;;;;;;;;;;;;;;-144.99;100.00;52494.97;5008908;28;20182;-70
2023/01/12 07:14:43;;;;;;;;;;;;;;;-144.99;100.00;52554.09;5009987;28;19925;-71
2023/01/12 07:17:11;;;;;;;;;;;;;;;-144.99;100.00;52537.78;5010043;28;19925;-70
2023/01/12 07:19:38;;;;;;;;;;;;;;;-144.99;100.00;52521.47;5022382;28;19913;-71
2023/01/12 07:22:04;;;;;;;;;;;;;;;-144.99;100.00;52521.47;5021445;28;19925;-71
2023/01/12 07:24:31;;;;;;;;;;;;;;;-144.99;100.00;52566.31;5008692;28;19933;-70
2023/01/12 07:26:58;;;;;;;;;;;;;;;-144.99;100.00;52558.16;5010246;28;19988;-70
2023/01/12 07:29:24;;;;;;;;;;;;;;;-144.99;100.00;52505.16;5003906;28;19929;-70
2023/01/12 07:31:53;;;;;;;;;;;;;;;-144.99;100.00;52550.00;5010279;28;19939;-70
2023/01/12 07:34:19;;;;;;;;;;;;;;;-144.99;100.00;52533.69;5006912;28;19926;-71
2023/01/12 07:36:48;;;;;;;;;;;;;;;-144.99;100.00;52505.16;5010480;28;19926;-71
2023/01/12 07:39:14;;;;;;;;;;;;;;;-144.99;100.00;52550.00;5009983;28;20393;-71
2023/01/12 07:44:25;;;;;;;;;;;;;;;-144.99;100.00;52562.25;5008073;28;19947;-69
2023/01/12 07:46:53;;;;;;;;;;;;;;;-144.99;100.00;52550.00;5010027;28;19964;-72
2023/01/12 07:49:19;;;;;;;;;;;;;;;-144.99;100.00;52541.84;5026630;22;19960;-64
2023/01/12 07:51:46;;;;;;;;;;;;;;;-144.99;100.00;52539.81;5024322;28;20025;-64
2023/01/12 07:54:13;;;;;;;;;;;;;;;-144.99;100.00;52513.31;5030234;28;20003;-65
2023/01/12 07:56:39;;;;;;;;;;;;;;;-144.99;100.00;52570.38;5037213;28;20433;-65
2023/01/12 07:59:05;;;;;;;;;;;;;;;-144.99;100.00;52558.16;5012575;28;20006;-64
2023/01/12 08:01:34;;;;;;;;;;;;;;;-144.99;100.00;52564.28;5030505;28;19998;-65
2023/01/12 08:04:02;;;;;;;;;;;;;;;-144.99;100.00;52525.56;5031935;28;19969;-64
2023/01/12 08:06:29;;;;;;;;;;;;;;;-144.99;100.00;52562.25;5041611;28;19935;-60
2023/01/12 08:08:55;;;;;;;;;;;;;;;-144.99;100.00;52517.41;5041746;28;19964;-68
2023/01/12 08:11:22;;;;;;;;;;;;;;;-144.99;100.00;52554.09;5032437;28;20417;-69
2023/01/12 08:13:53;;;;;;;;;;;;;;;-144.99;100.00;52556.13;5039250;28;19935;-68
2023/01/12 08:16:20;;;;;;;;;;;;;;;-144.99;100.00;52537.78;5043114;28;20045;-68
2023/01/12 08:18:48;;;;;;;;;;;;;;;-144.99;100.00;52525.56;5027095;28;19979;-68
2023/01/12 08:21:19;;;;;;;;;;;;;;;-144.99;100.00;52511.28;5031614;28;20027;-68
2023/01/12 08:23:48;;;;;;;;;;;;;;;-144.99;100.00;52537.78;5035839;28;19982;-68
2023/01/12 08:26:16;;;;;;;;;;;;;;;-144.99;100.00;52529.63;5031019;28;20003;-68
2023/01/12 08:28:44;;;;;;;;;;;;;;;-144.99;100.00;52541.84;5014761;28;20037;-68
2023/01/12 08:31:13;;;;;;;;;;;;;;;-144.99;100.00;52525.56;5030974;28;19929;-68
2023/01/12 08:33:39;;;;;;;;;;;;;;;-144.99;100.00;52541.84;5035890;28;19937;-68
2023/01/12 08:36:08;;;;;;;;;;;;;;;-144.99;100.00;52545.94;5049088;28;19925;-69
2023/01/12 08:38:36;;;;;;;;;;;;;;;-144.99;100.00;52550.00;5035315;28;19999;-69
2023/01/12 08:44:01;;;;;;;;;;;;;;;-144.99;100.00;52564.28;5035631;28;19962;-69
2023/01/12 08:46:28;;;;;;;;;;;;;;;-144.99;100.00;52554.09;5042439;28;20025;-69
2023/01/12 08:48:54;;;;;;;;;;;;;;;-144.99;100.00;52525.56;5031639;28;20003;-69
2023/01/12 08:51:21;;;;;;;;;;;;;;;-144.99;100.00;52525.56;5031092;28;19980;-69
2023/01/12 08:53:49;;;;;;;;;;;;;;;-144.99;100.00;52543.91;5033447;28;20063;-69
2023/01/12 08:56:15;;;;;;;;;;;;;;;-144.99;100.00;52529.63;5042940;28;19968;-69
2023/01/12 08:58:42;;;;;;;;;;;;;;;-144.99;100.00;52574.47;5023130;28;20008;-69
2023/01/12 09:01:10;;;;;;;;;;;;;;;-144.99;100.00;52527.59;5011808;28;19930;-70
2023/01/12 09:03:36;;;;;;;;;;;;;;;-144.99;100.00;52529.63;5028340;28;20147;-69
2023/01/12 09:06:10;;;;;;;;;;;;;;;-144.99;100.00;52578.53;5022924;28;19975;-69
2023/01/12 09:08:36;;;;;;;;;;;;;;;-144.99;100.00;52554.09;5036484;28;19958;-68
2023/01/12 09:11:05;;;;;;;;;;;;;;;-144.99;100.00;52541.84;5032678;28;20057;-68
2023/01/12 09:13:32;;;;;;;;;;;;;;;-144.99;100.00;52482.75;5030585;28;19951;-69
2023/01/12 09:16:01;;;;;;;;;;;;;;;-144.99;100.00;52564.28;5031335;28;19929;-69
2023/01/12 09:18:28;;;;;;;;;;;;;;;-144.99;100.00;52527.59;5022107;28;20360;-69
2023/01/12 09:21:00;;;;;;;;;;;;;;;-144.99;100.00;52537.78;5029615;28;19926;-67
2023/01/12 09:23:26;;;;;;;;;;;;;;;-144.99;100.00;52558.16;5029281;28;20016;-68
2023/01/12 09:25:53;;;;;;;;;;;;;;;-144.99;100.00;52497.00;5028628;28;19983;-67
2023/01/12 09:28:21;;;;;;;;;;;;;;;-144.99;100.00;52525.56;5039661;28;20424;-68
2023/01/12 09:30:47;;;;;;;;;;;;;;;-144.99;100.00;52517.41;5037510;28;19996;-68
2023/01/12 09:33:14;;;;;;;;;;;;;;;-144.99;100.00;52484.78;5028677;28;19938;-68
2023/01/12 09:35:43;;;;;;;;;;;;;;;-144.99;100.00;52541.84;5033657;28;20405;-68
2023/01/12 09:38:09;;;;;;;;;;;;;;;-144.99;100.00;52505.16;5035241;28;20058;-68
2023/01/12 09:40:36;;;;;;;;;;;;;;;-144.99;100.00;52541.84;5029277;28;19960;-68
2023/01/12 09:48:33;;;;;;;;;;;;;;;-144.99;100.00;52501.09;5026084;28;19932;-68
2023/01/12 09:51:04;;;;;;;;;;;;;;;-144.99;100.00;52517.41;4943847;28;1901819;-68
2023/01/12 09:53:33;;;;;;;;;;;;;;;-144.99;100.00;52509.25;5022608;28;20352;-68
2023/01/12 09:56:04;;;;;;;;;;;;;;;-144.99;100.00;52497.00;5029061;28;19979;-68
2023/01/12 09:58:39;;;;;;;;;;;;;;;-144.99;100.00;52545.94;5017450;28;19975;-68
2023/01/12 10:01:10;;;;;;;;;;;;;;;-144.99;100.00;52545.94;5026266;28;20363;-68
2023/01/12 10:03:38;;;;;;;;;;;;;;;-144.99;100.00;52541.84;5036112;28;19925;-68
2023/01/12 10:06:05;;;;;;;;;;;;;;;-144.99;100.00;52541.84;5038021;28;19944;-68
2023/01/12 10:08:34;;;;;;;;;;;;;;;-144.99;100.00;52560.19;5030253;28;19931;-67
2023/01/12 10:11:13;;;;;;;;;;;;;;;-144.99;100.00;52517.41;5029661;28;19948;-68
2023/01/12 10:13:55;;;;;;;;;;;;;;;-144.99;100.00;52541.84;5033640;28;20389;-68
2023/01/12 10:16:25;;;;;;;;;;;;;;;-144.99;100.00;52501.09;5030482;28;19933;-69
2023/01/12 10:18:56;;;;;;;;;;;;;;;-144.99;100.00;52517.41;5023167;28;20012;-69
2023/01/12 10:21:23;;;;;;;;;;;;;;;-144.99;100.00;52472.56;5029835;28;20067;-69
2023/01/12 10:23:53;;;;;;;;;;;;;;;-144.99;100.00;52529.63;5020984;28;19925;-69
2023/01/12 10:26:21;;;;;;;;;;;;;;;-144.99;100.00;52492.94;5036831;28;19980;-68
2023/01/12 10:28:51;;;;;;;;;;;;;;;-144.99;100.00;52521.47;5027854;28;19925;-69
2023/01/12 10:31:19;;;;;;;;;;;;;;;-144.99;100.00;52484.78;5044596;28;19928;-69
2023/01/12 10:36:43;;;;;;;;;;;;;;;-144.99;100.00;52484.78;5126468;27;19912;-69
2023/01/12 10:39:25;;;;;;;;;;;;;;;-144.99;100.00;52539.81;5116525;28;19924;-69
2023/01/12 10:42:07;;;;;;;;;;;;;;;-144.99;100.00;52525.56;5105871;28;20112;-69
2023/01/12 10:44:34;;;;;;;;;;;;;;;-144.99;100.00;52541.84;5100196;28;19985;-70
2023/01/12 10:47:08;;;;;;;;;;;;;;;-144.99;100.00;52562.25;5098943;28;20376;-70
2023/01/12 10:49:35;;;;;;;;;;;;;;;-144.99;100.00;52558.16;5085764;28;20388;-70
2023/01/12 10:52:07;;;;;;;;;;;;;;;-144.99;100.00;52558.16;5086005;28;19968;-69
2023/01/12 10:54:34;;;;;;;;;;;;;;;-144.99;100.00;52525.56;5101471;28;19963;-71
2023/01/12 10:57:03;;;;;;;;;;;;;;;-144.99;100.00;52505.16;5101713;28;19965;-71
2023/01/12 10:59:31;;;;;;;;;;;;;;;-144.99;100.00;52470.50;5100496;28;19928;-70
2023/01/12 11:02:12;;;;;;;;;;;;;;;-144.99;100.00;52537.78;5096737;28;19935;-69
2023/01/12 11:04:40;;;;;;;;;;;;;;;-144.99;100.00;52529.63;5086703;28;19932;-69
2023/01/12 11:07:11;;;;;;;;;;;;;;;-144.99;100.00;52501.09;5105913;28;19979;-70
2023/01/12 11:09:37;;;;;;;;;;;;;;;-144.99;100.00;52541.84;5096708;28;19928;-70
2023/01/12 11:12:06;;;;;;;;;;;;;;;-144.99;100.00;52488.84;5102394;28;19967;-69
2023/01/12 11:14:34;;;;;;;;;;;;;;;-144.99;100.00;52517.41;5105704;28;19955;-70
2023/01/12 11:17:09;;;;;;;;;;;;;;;-144.99;100.00;52513.31;5105779;28;19943;-69
2023/01/12 11:19:39;;;;;;;;;;;;;;;-144.99;100.00;52505.16;5104389;28;19931;-72
2023/01/12 11:22:08;;;;;;;;;;;;;;;-144.99;100.00;52533.69;5107013;28;19971;-70
2023/01/12 11:24:41;;;;;;;;;;;;;;;-144.99;100.00;52488.84;5105221;28;20006;-69
2023/01/12 11:27:13;;;;;;;;;;;;;;;-144.99;100.00;52501.09;5101858;28;19924;-70
2023/01/12 11:29:43;;;;;;;;;;;;;;;-144.99;100.00;52501.09;5093168;28;20018;-69
2023/01/12 11:32:12;;;;;;;;;;;;;;;-144.99;100.00;52550.00;5104072;28;19924;-69
2023/01/12 11:34:44;;;;;;;;;;;;;;;-144.99;100.00;52484.78;5094042;28;19924;-69
2023/01/12 11:37:12;;;;;;;;;;;;;;;-144.99;100.00;52480.72;5102294;28;20572;-70
2023/01/12 11:39:41;;;;;;;;;;;;;;;-144.99;100.00;52484.78;5092898;28;19924;-70
2023/01/12 11:45:00;;;;;;;;;;;;;;;-144.99;100.00;52537.78;5097572;28;19935;-69
2023/01/12 11:47:30;;;;;;;;;;;;;;;-144.99;100.00;52515.34;5093579;28;19923;-70
2023/01/12 11:49:59;;;;;;;;;;;;;;;-144.99;100.00;52480.72;5089304;28;19933;-70
2023/01/12 11:52:26;;;;;;;;;;;;;;;-144.99;100.00;52490.91;5089977;28;19940;-73
2023/01/12 11:54:54;;;;;;;;;;;;;;;-144.99;100.00;52486.81;5105725;28;20715;-68
2023/01/12 11:57:36;;;;;;;;;;;;;;;-144.99;100.00;52497.00;5092146;28;19967;-70
2023/01/12 12:00:17;;;;;;;;;;;;;;;-144.99;100.00;52462.34;5070647;28;19994;-73
2023/01/12 12:02:51;;;;;;;;;;;;;;;-144.99;100.00;52488.84;4379611;28;10000696;-70
2023/01/12 12:05:27;;;;;;;;;;;;;;;-144.99;100.00;52529.63;5089179;28;19928;-70
2023/01/12 12:07:59;;;;;;;;;;;;;;;-144.99;100.00;52484.78;5089011;28;19979;-71
2023/01/12 12:10:31;;;;;;;;;;;;;;;-144.99;100.00;52494.97;5087903;28;19932;-71
2023/01/12 12:13:13;;;;;;;;;;;;;;;-144.99;100.00;52484.78;5085262;28;19972;-71
2023/01/12 12:15:45;;;;;;;;;;;;;;;-144.99;100.00;52472.56;5084380;28;20397;-70
2023/01/12 12:18:18;;;;;;;;;;;;;;;-144.99;100.00;52517.41;5078321;28;20047;-70
2023/01/12 12:20:51;;;;;;;;;;;;;;;-144.99;100.00;52521.47;5074957;28;19932;-70
2023/01/12 12:23:21;;;;;;;;;;;;;;;-144.99;100.00;52468.47;5087749;28;19925;-71
2023/01/12 12:25:56;;;;;;;;;;;;;;;-144.99;100.00;52488.84;5067744;28;20034;-71
2023/01/12 12:28:31;;;;;;;;;;;;;;;-144.99;100.00;52501.09;5067528;28;19929;-68
2023/01/12 12:31:06;;;;;;;;;;;;;;;-144.99;100.00;52488.84;5068824;28;19968;-67
2023/01/12 12:33:40;;;;;;;;;;;;;;;-144.99;100.00;52501.09;5084499;28;20462;-67
2023/01/12 12:36:13;;;;;;;;;;;;;;;-144.99;100.00;52503.13;5087531;28;19960;-68
2023/01/12 12:38:47;;;;;;;;;;;;;;;-144.99;100.00;52507.19;5087454;28;19928;-68
2023/01/12 12:46:59;;;;;;;;;;;;;;;-144.99;100.00;52494.97;4734591;28;9999900;-68
2023/01/12 12:49:27;;;;;;;;;;;;;;;-144.99;100.00;52492.94;5087157;28;20409;-69
2023/01/12 12:51:56;;;;;;;;;;;;;;;-144.99;100.00;52507.19;5085067;28;20025;-68
2023/01/12 12:54:23;;;;;;;;;;;;;;;-144.99;100.00;52492.94;5085305;28;20426;-68
2023/01/12 12:56:51;;;;;;;;;;;;;;;-144.99;100.00;52497.00;5084824;28;19974;-69
2023/01/12 12:59:36;;;;;;;;;;;;;;;-144.99;100.00;52505.16;5085975;28;20070;-67
2023/01/12 13:02:03;;;;;;;;;;;;;;;-144.99;100.00;52521.47;5082092;28;19953;-67
2023/01/12 13:04:57;;;;;;;;;;;;;;;-144.99;100.00;52525.56;5085498;28;19928;-68
2023/01/12 13:07:25;;;;;;;;;;;;;;;-144.99;100.00;52497.00;5089977;28;19932;-67
2023/01/12 13:10:01;;;;;;;;;;;;;;;-144.99;98.85;52497.00;5086586;28;19962;-68
2023/01/12 13:12:32;;;;;;;;;;;;;;;-144.99;98.01;52486.81;5085166;28;20441;-68